Terminal Aerodrome Forecast
Issued by NWS Wakefield, VA

Home | Current Version | Previous Version | Text Only | Print | Product List | Glossary On
Versions: 1 2 3 4 5 6 7 8 9 10 11 12 13 14 15 16 17 18 19 20 21 22 23 24 25 26 27 28 29 30 31 32 33 34
000
FTUS41 KAKQ 171120
TAFORF
TAF
KORF 171120Z 1712/1812 05008KT P6SM SCT015 BKN200
     FM171300 06012KT P6SM BKN150
     FM171500 06014G22KT P6SM SCT025 BKN045
     FM172200 05012G20KT P6SM BKN060
     FM180100 04012KT P6SM SCT060=

USA.gov is the U.S. government's official web portal to all federal, state and local government web resources and services.